Silver Cloud — C6MQ5 — position and weather

sailwx.info

Track history (hours):
 
Tides and Currents Weather Stations Pressure Air Temp Water Temp Dewpoint Dewpoint Depression Visibility Wind Speed Wind Dir Waves Ship Positions

Silver Cloud

Operator: V Ships Leisure SAM

Last reported at 2017-Nov-01 19:24 UTC. Time now 2017-Nov-21 08:18 UTC.
Position N 27°38' W 015°16'.
Warning: this ship's position is 19 days out of date.

Length 156 m; draft 5.7 m.

Type: Passenger vessel. MMSI: 309027000.

Date/timePositionNaut miles runAvg speedWind from/ knotsBaromVisibWave heightAir tempDewpointWater temp
2017-Nov-01 19:24N 27°38' W 015°16'718.1
2017-Nov-01 19:00N 27°45' W 015°13'817.1
2017-Nov-01 18:30N 27°53' W 015°12'19 1.2
2017-Nov-01 01:57N 28°08' W 015°25'0 0.0
2017-Nov-01 01:27N 28°08' W 015°25'0 0.0
2017-Nov-01 00:57N 28°08' W 015°25'0 0.0
2017-Nov-01 00:27N 28°08' W 015°25'0 0.0
2017-Oct-31 23:57N 28°08' W 015°25'0 0.0
2017-Oct-31 23:27N 28°08' W 015°25'0 0.0
2017-Oct-31 22:57N 28°08' W 015°25'0 0.0
2017-Oct-31 22:29N 28°08' W 015°25'1 1.4
2017-Oct-31 22:00N 28°08' W 015°25'3 6.5
2017-Oct-31 21:30N 28°07' W 015°22'1 2.4
2017-Oct-31 21:00N 28°07' W 015°20'714.9
2017-Oct-31 20:31N 28°08' W 015°12'918.2
2017-Oct-31 20:00N 28°10' W 015°02'917.3
2017-Oct-31 19:31N 28°18' W 014°57'918.1
2017-Oct-31 19:01N 28°26' W 014°53'918.2
2017-Oct-31 18:31N 28°35' W 014°50'917.8
2017-Oct-31 18:00N 28°42' W 014°44'918.1
2017-Oct-31 17:30N 28°48' W 014°36'1318.1
2017-Oct-31 16:49N 28°57' W 014°26'518.1
2017-Oct-31 16:31N 29°01' W 014°22'918.6
2017-Oct-31 16:01N 29°08' W 014°14'1118.3
2017-Oct-31 15:24N 29°16' W 014°06'718.1
2017-Oct-31 15:00N 29°21' W 013°60'1518.1
2017-Oct-31 14:12N 29°31' W 013°48'13017.5
2017-Oct-31 06:47N 31°04' W 012°02'518.1
2017-Oct-31 06:30N 31°07' W 011°58'1318.4
2017-Oct-31 05:47N 31°16' W 011°46'18218.3
2017-Oct-30 19:52N 33°25' W 009°15'  
Track history (hours):
 
Tides and Currents Weather Stations Pressure Air Temp Water Temp Dewpoint Dewpoint Depression Visibility Wind Speed Wind Dir Waves Ship Positions

Silver Cloud

Operator: V Ships Leisure SAM

Last reported at 2017-Nov-01 19:24 UTC. Time now 2017-Nov-21 08:18 UTC.
Position N 27°38' W 015°16'.
Warning: this ship's position is 19 days out of date.

Length 156 m; draft 5.7 m.

Type: Passenger vessel. MMSI: 309027000.

Date/timePositionNaut miles runAvg speedWind from/ knotsBaromVisibWave heightAir tempDewpointWater temp
2017-Nov-01 19:24N 27°38' W 015°16'718.1
2017-Nov-01 19:00N 27°45' W 015°13'817.1
2017-Nov-01 18:30N 27°53' W 015°12'19 1.2
2017-Nov-01 01:57N 28°08' W 015°25'0 0.0
2017-Nov-01 01:27N 28°08' W 015°25'0 0.0
2017-Nov-01 00:57N 28°08' W 015°25'0 0.0
2017-Nov-01 00:27N 28°08' W 015°25'0 0.0
2017-Oct-31 23:57N 28°08' W 015°25'0 0.0
2017-Oct-31 23:27N 28°08' W 015°25'0 0.0
2017-Oct-31 22:57N 28°08' W 015°25'0 0.0
2017-Oct-31 22:29N 28°08' W 015°25'1 1.4
2017-Oct-31 22:00N 28°08' W 015°25'3 6.5
2017-Oct-31 21:30N 28°07' W 015°22'1 2.4
2017-Oct-31 21:00N 28°07' W 015°20'714.9
2017-Oct-31 20:31N 28°08' W 015°12'918.2
2017-Oct-31 20:00N 28°10' W 015°02'917.3
2017-Oct-31 19:31N 28°18' W 014°57'918.1
2017-Oct-31 19:01N 28°26' W 014°53'918.2
2017-Oct-31 18:31N 28°35' W 014°50'917.8
2017-Oct-31 18:00N 28°42' W 014°44'918.1
2017-Oct-31 17:30N 28°48' W 014°36'1318.1
2017-Oct-31 16:49N 28°57' W 014°26'518.1
2017-Oct-31 16:31N 29°01' W 014°22'918.6
2017-Oct-31 16:01N 29°08' W 014°14'1118.3
2017-Oct-31 15:24N 29°16' W 014°06'718.1
2017-Oct-31 15:00N 29°21' W 013°60'1518.1
2017-Oct-31 14:12N 29°31' W 013°48'13017.5
2017-Oct-31 06:47N 31°04' W 012°02'518.1
2017-Oct-31 06:30N 31°07' W 011°58'1318.4
2017-Oct-31 05:47N 31°16' W 011°46'18218.3
2017-Oct-30 19:52N 33°25' W 009°15'  

Dump ship's entire track history